createdAt,value
2018-12-08T00:02:27.462Z,7.60
2018-12-08T00:04:56.031Z,7.60
2018-12-08T00:07:24.505Z,7.60
2018-12-08T00:09:52.993Z,7.60
2018-12-08T00:12:21.467Z,7.60
2018-12-08T00:14:50.133Z,7.60
2018-12-08T00:17:18.958Z,7.70
2018-12-08T00:19:47.606Z,7.60
2018-12-08T00:22:16.180Z,7.60
2018-12-08T00:24:44.626Z,7.50
2018-12-08T00:27:13.535Z,7.50
2018-12-08T00:29:42.177Z,7.60
2018-12-08T00:32:10.647Z,7.50
2018-12-08T00:34:39.124Z,7.50
2018-12-08T00:37:07.714Z,7.40
2018-12-08T00:39:36.153Z,7.40
2018-12-08T00:42:04.613Z,7.30
2018-12-08T00:44:33.123Z,7.30
2018-12-08T00:47:01.549Z,7.30
2018-12-08T00:49:30.098Z,7.30
2018-12-08T00:51:58.619Z,7.30
2018-12-08T00:54:27.347Z,7.20
2018-12-08T00:56:55.821Z,7.20
2018-12-08T00:59:24.371Z,7.20
2018-12-08T01:01:52.863Z,7.10
2018-12-08T01:04:21.350Z,7.20
2018-12-08T01:06:50.561Z,7.10
2018-12-08T01:09:19.031Z,7.10
2018-12-08T01:11:47.609Z,7.00
2018-12-08T01:14:16.086Z,7.00
2018-12-08T01:16:44.541Z,6.90
2018-12-08T01:19:13.661Z,6.90
2018-12-08T01:21:42.121Z,6.80
2018-12-08T01:24:10.571Z,6.80
2018-12-08T01:26:39.018Z,6.80
2018-12-08T01:29:07.733Z,6.80
2018-12-08T01:31:37.270Z,6.80
2018-12-08T01:34:05.721Z,6.70
2018-12-08T01:36:34.268Z,6.70
2018-12-08T01:39:03.314Z,6.70
2018-12-08T01:41:32.440Z,6.60
2018-12-08T01:44:00.921Z,6.60
2018-12-08T01:46:29.505Z,6.60
2018-12-08T01:48:57.979Z,6.60
2018-12-08T01:51:26.474Z,6.50
2018-12-08T01:53:55.073Z,6.50
2018-12-08T01:56:23.679Z,6.40
2018-12-08T01:58:52.135Z,6.50
2018-12-08T02:01:20.726Z,6.50
2018-12-08T02:03:49.183Z,6.50
2018-12-08T02:06:17.606Z,6.50
2018-12-08T02:08:46.059Z,6.50
2018-12-08T02:11:14.540Z,6.40
2018-12-08T02:13:43.240Z,6.40
2018-12-08T02:16:11.734Z,6.40
2018-12-08T02:18:40.172Z,6.50
2018-12-08T02:21:08.750Z,6.60
2018-12-08T02:23:37.751Z,6.60
2018-12-08T02:26:06.225Z,6.60
2018-12-08T02:28:34.816Z,6.60
2018-12-08T02:31:03.382Z,6.50
2018-12-08T02:33:31.842Z,6.40
2018-12-08T02:36:00.424Z,6.40
2018-12-08T02:38:28.996Z,6.40
2018-12-08T02:40:57.452Z,6.40
2018-12-08T02:43:25.880Z,6.50
2018-12-08T02:45:54.353Z,6.60
2018-12-08T02:48:22.804Z,6.50
2018-12-08T02:50:51.304Z,6.60
2018-12-08T02:53:20.862Z,6.60
2018-12-08T02:55:49.334Z,6.50
2018-12-08T02:58:17.801Z,6.50
2018-12-08T03:00:46.318Z,6.50
2018-12-08T03:03:14.765Z,6.60
2018-12-08T03:05:43.256Z,6.60
2018-12-08T03:08:11.824Z,6.60
2018-12-08T03:10:40.285Z,6.50
2018-12-08T03:13:08.920Z,6.50
2018-12-08T03:15:37.426Z,6.50
2018-12-08T03:18:06.008Z,6.40
2018-12-08T03:20:34.584Z,6.40
2018-12-08T03:23:03.008Z,6.30
2018-12-08T03:25:31.477Z,6.30
2018-12-08T03:27:59.994Z,6.30
2018-12-08T03:30:28.436Z,6.20
2018-12-08T03:32:57.008Z,6.20
2018-12-08T03:35:25.487Z,6.20
2018-12-08T03:37:54.056Z,6.20
2018-12-08T03:40:22.557Z,6.20
2018-12-08T03:42:50.982Z,6.20
2018-12-08T03:45:19.602Z,6.20
2018-12-08T03:47:48.036Z,6.10
2018-12-08T03:50:16.545Z,6.20
2018-12-08T03:52:44.978Z,6.30
2018-12-08T03:55:14.861Z,6.40
2018-12-08T03:57:43.343Z,6.50
2018-12-08T04:00:12.031Z,6.40
2018-12-08T04:02:40.675Z,6.40
2018-12-08T04:05:09.278Z,6.40
2018-12-08T04:07:38.348Z,6.40
2018-12-08T04:10:07.088Z,6.40
2018-12-08T04:12:35.557Z,6.40
2018-12-08T04:15:04.495Z,6.40
2018-12-08T04:17:33.081Z,6.40
2018-12-08T04:20:01.591Z,6.30
2018-12-08T04:22:30.135Z,6.30
2018-12-08T04:24:58.573Z,6.30
2018-12-08T04:27:27.144Z,6.30
2018-12-08T04:29:55.618Z,6.40
2018-12-08T04:32:24.207Z,6.40
2018-12-08T04:34:52.698Z,6.40
2018-12-08T04:37:21.121Z,6.40
2018-12-08T04:39:49.660Z,6.30
2018-12-08T04:42:18.130Z,6.40
2018-12-08T04:44:46.551Z,6.30
2018-12-08T04:47:15.139Z,6.40
2018-12-08T04:49:43.560Z,6.40
2018-12-08T04:52:11.972Z,6.40
2018-12-08T04:54:40.419Z,6.40
2018-12-08T04:57:09.833Z,6.40
2018-12-08T04:59:38.778Z,6.50
2018-12-08T05:02:07.225Z,6.50
2018-12-08T05:04:35.808Z,6.40
2018-12-08T05:07:04.482Z,6.50
2018-12-08T05:09:32.991Z,6.40
2018-12-08T05:12:01.492Z,6.30
2018-12-08T05:14:29.941Z,6.40
2018-12-08T05:16:58.395Z,6.40
2018-12-08T05:19:26.943Z,6.40
2018-12-08T05:21:55.421Z,6.40
2018-12-08T05:24:23.832Z,6.50
2018-12-08T05:26:52.295Z,6.40
2018-12-08T05:29:20.724Z,6.30
2018-12-08T05:31:49.270Z,6.30
2018-12-08T05:34:17.861Z,6.30
2018-12-08T05:36:46.417Z,6.40
2018-12-08T05:39:14.974Z,6.40
2018-12-08T05:41:43.409Z,6.50
2018-12-08T05:44:11.873Z,6.50
2018-12-08T05:46:40.398Z,6.50
2018-12-08T05:49:08.833Z,6.60
2018-12-08T05:51:37.301Z,6.60
2018-12-08T05:54:05.852Z,6.60
2018-12-08T05:56:34.492Z,6.70
2018-12-08T05:59:02.980Z,6.70
2018-12-08T06:01:32.267Z,6.60
2018-12-08T06:04:00.766Z,6.60
2018-12-08T06:06:29.201Z,6.60
2018-12-08T06:08:57.641Z,6.60
2018-12-08T06:11:26.111Z,6.60
2018-12-08T06:13:54.549Z,6.60
2018-12-08T06:16:23.100Z,6.60
2018-12-08T06:18:51.563Z,6.60
2018-12-08T06:21:27.899Z,6.50
2018-12-08T06:23:56.373Z,6.50
2018-12-08T06:26:24.820Z,6.50
2018-12-08T06:28:54.954Z,6.50
2018-12-08T06:31:23.459Z,6.50
2018-12-08T06:33:51.937Z,6.50
2018-12-08T06:36:20.517Z,6.40
2018-12-08T06:38:48.964Z,6.30
2018-12-08T06:41:17.447Z,6.30
2018-12-08T06:43:45.866Z,6.30
2018-12-08T06:46:14.349Z,6.20
2018-12-08T06:48:42.906Z,6.20
2018-12-08T06:51:11.359Z,6.20
2018-12-08T06:53:39.939Z,6.20
2018-12-08T06:56:08.387Z,6.20
2018-12-08T06:58:36.819Z,6.20
2018-12-08T07:01:05.376Z,6.30
2018-12-08T07:03:33.974Z,6.30
2018-12-08T07:06:02.434Z,6.40
2018-12-08T07:08:30.913Z,6.40
2018-12-08T07:10:59.364Z,6.40
2018-12-08T07:13:27.903Z,6.40
2018-12-08T07:15:56.380Z,6.50
2018-12-08T07:18:26.269Z,6.50
2018-12-08T07:20:55.000Z,6.50
2018-12-08T07:23:23.578Z,6.50
2018-12-08T07:25:52.020Z,6.50
2018-12-08T07:28:21.367Z,6.60
2018-12-08T07:30:49.963Z,6.60
2018-12-08T07:33:18.420Z,6.50
2018-12-08T07:35:46.890Z,6.50
2018-12-08T07:38:16.060Z,6.50
2018-12-08T07:40:45.198Z,6.50
2018-12-08T07:43:13.682Z,6.50
2018-12-08T07:45:42.196Z,6.60
2018-12-08T07:48:10.696Z,6.50
2018-12-08T07:50:39.144Z,6.60
2018-12-08T07:53:08.230Z,6.50
2018-12-08T07:55:36.703Z,6.60
2018-12-08T07:58:05.239Z,6.70
2018-12-08T08:00:33.702Z,6.80
2018-12-08T08:03:02.180Z,6.90
2018-12-08T08:05:30.709Z,6.90
2018-12-08T08:07:59.269Z,7.00
2018-12-08T08:10:27.718Z,7.00
2018-12-08T08:12:56.203Z,7.00
2018-12-08T08:15:24.740Z,7.10
2018-12-08T08:17:53.224Z,7.10
2018-12-08T08:20:21.699Z,7.20
2018-12-08T08:22:50.658Z,7.30
2018-12-08T08:25:19.111Z,7.30
2018-12-08T08:27:47.567Z,7.40
2018-12-08T08:30:16.136Z,7.40
2018-12-08T08:32:44.571Z,7.40
2018-12-08T08:35:13.043Z,7.50
2018-12-08T08:37:41.708Z,7.50
2018-12-08T08:40:11.306Z,7.50
2018-12-08T08:42:39.741Z,7.50
2018-12-08T08:45:08.719Z,7.50
2018-12-08T08:47:37.258Z,7.50
2018-12-08T08:50:08.512Z,7.60
2018-12-08T08:52:37.191Z,7.60
2018-12-08T08:55:06.711Z,7.50
2018-12-08T08:57:35.322Z,7.50
2018-12-08T09:00:05.081Z,7.40
2018-12-08T09:02:33.540Z,7.40
2018-12-08T09:05:02.057Z,7.40
2018-12-08T09:07:30.546Z,7.40
2018-12-08T09:09:59.058Z,7.40
2018-12-08T09:12:27.495Z,7.40
2018-12-08T09:14:55.928Z,7.40
2018-12-08T09:17:24.407Z,7.30
2018-12-08T09:19:52.843Z,7.30
2018-12-08T09:22:21.370Z,7.40
2018-12-08T09:24:49.814Z,7.30
2018-12-08T09:27:18.377Z,7.30
2018-12-08T09:29:47.407Z,7.20
2018-12-08T09:32:15.903Z,7.30
2018-12-08T09:34:45.420Z,7.30
2018-12-08T09:37:13.918Z,7.30
2018-12-08T09:39:42.622Z,7.30
2018-12-08T09:42:11.264Z,7.30
2018-12-08T09:44:39.817Z,7.30
2018-12-08T09:47:08.263Z,7.30
2018-12-08T09:49:36.720Z,7.30
2018-12-08T09:52:05.170Z,7.30
2018-12-08T09:54:33.682Z,7.20
2018-12-08T09:57:02.443Z,7.20
2018-12-08T09:59:31.006Z,7.20
2018-12-08T10:01:59.584Z,7.30
2018-12-08T10:04:28.332Z,7.50
2018-12-08T10:06:56.778Z,7.70
2018-12-08T10:09:25.310Z,7.70
2018-12-08T10:11:53.784Z,7.70
2018-12-08T10:14:22.368Z,7.70
2018-12-08T10:16:50.842Z,7.70
2018-12-08T10:19:19.413Z,7.70
2018-12-08T10:21:47.901Z,7.70
2018-12-08T10:24:16.464Z,7.80
2018-12-08T10:26:44.944Z,7.80
2018-12-08T10:29:13.404Z,7.80
2018-12-08T10:31:41.952Z,7.80
2018-12-08T10:34:10.389Z,7.80
2018-12-08T10:36:39.058Z,7.80
2018-12-08T10:39:08.824Z,7.80
2018-12-08T10:41:37.300Z,7.80
2018-12-08T10:44:05.914Z,7.80
2018-12-08T10:46:34.492Z,7.90
2018-12-08T10:49:02.979Z,7.90
2018-12-08T10:51:31.461Z,7.90
2018-12-08T10:53:59.881Z,8.00
2018-12-08T10:56:28.328Z,8.10
2018-12-08T10:58:56.843Z,8.10
2018-12-08T11:01:29.518Z,8.20
2018-12-08T11:03:58.202Z,8.20
2018-12-08T11:06:26.661Z,8.20
2018-12-08T11:08:55.248Z,8.30
2018-12-08T11:11:23.824Z,8.40
2018-12-08T11:13:52.283Z,8.50
2018-12-08T11:16:21.846Z,8.70
2018-12-08T11:18:50.284Z,8.80
2018-12-08T11:21:19.451Z,8.80
2018-12-08T11:23:47.903Z,8.90
2018-12-08T11:26:16.385Z,8.80
2018-12-08T11:28:44.915Z,8.90
2018-12-08T11:31:13.415Z,8.80
2018-12-08T11:33:42.172Z,8.70
2018-12-08T11:36:10.708Z,8.70
2018-12-08T11:38:39.244Z,8.80
2018-12-08T11:41:07.807Z,8.80
2018-12-08T11:43:36.263Z,8.80
2018-12-08T11:46:04.754Z,8.80
2018-12-08T11:48:33.318Z,8.80
2018-12-08T11:51:02.064Z,8.80
2018-12-08T11:53:30.522Z,8.70
2018-12-08T11:55:58.970Z,8.70
2018-12-08T11:58:27.547Z,8.70
2018-12-08T12:00:56.071Z,8.70
2018-12-08T12:03:24.527Z,8.60
2018-12-08T12:05:53.064Z,8.50
2018-12-08T12:08:21.563Z,8.50
2018-12-08T12:10:50.154Z,8.50
2018-12-08T12:13:18.861Z,8.40
2018-12-08T12:15:47.462Z,8.30
2018-12-08T12:18:16.012Z,8.20
2018-12-08T12:20:44.576Z,8.20
2018-12-08T12:23:13.034Z,8.20
2018-12-08T12:25:41.457Z,8.20
2018-12-08T12:28:11.153Z,8.10
2018-12-08T12:30:40.002Z,8.00
2018-12-08T12:33:08.542Z,7.90
2018-12-08T12:35:37.014Z,7.70
2018-12-08T12:38:05.451Z,7.60
2018-12-08T12:40:33.919Z,7.60
2018-12-08T12:43:02.361Z,7.60
2018-12-08T12:45:31.408Z,7.60
2018-12-08T12:47:59.844Z,7.50
2018-12-08T12:50:28.503Z,7.60
2018-12-08T12:52:57.062Z,7.60
2018-12-08T12:55:25.536Z,7.60
2018-12-08T12:57:53.967Z,7.60
2018-12-08T13:00:22.501Z,7.60
2018-12-08T13:02:50.990Z,7.60
2018-12-08T13:05:19.408Z,7.70
2018-12-08T13:07:47.892Z,7.80
2018-12-08T13:10:16.572Z,7.80
2018-12-08T13:12:45.010Z,7.90
2018-12-08T13:15:13.758Z,7.80
2018-12-08T13:17:42.314Z,7.80
2018-12-08T13:20:11.261Z,7.80
2018-12-08T13:22:40.439Z,7.80
2018-12-08T13:25:24.610Z,7.70
2018-12-08T13:27:53.110Z,7.60
2018-12-08T13:30:21.620Z,7.60
2018-12-08T13:32:50.690Z,7.60
2018-12-08T13:35:59.145Z,7.60
2018-12-08T13:38:27.806Z,7.50
2018-12-08T13:40:56.385Z,7.40
2018-12-08T13:43:31.245Z,7.40
2018-12-08T13:45:59.811Z,7.30
2018-12-08T13:48:29.406Z,7.20
2018-12-08T13:50:58.279Z,7.20
2018-12-08T13:53:26.736Z,7.20
2018-12-08T13:55:55.196Z,7.20
2018-12-08T13:58:23.605Z,7.10
2018-12-08T14:00:52.118Z,7.10
2018-12-08T14:03:20.613Z,7.10
2018-12-08T14:05:49.090Z,7.10
2018-12-08T14:08:17.559Z,7.10
2018-12-08T14:10:46.500Z,7.20
2018-12-08T14:13:15.020Z,7.20
2018-12-08T14:15:43.476Z,7.20
2018-12-08T14:18:11.964Z,7.20
2018-12-08T14:20:40.401Z,7.20
2018-12-08T14:23:08.974Z,7.20
2018-12-08T14:25:37.489Z,7.30
2018-12-08T14:28:06.287Z,7.30
2018-12-08T14:30:34.994Z,7.30
2018-12-08T14:33:03.469Z,7.30
2018-12-08T14:35:32.045Z,7.40
2018-12-08T14:38:01.181Z,7.40
2018-12-08T14:40:29.602Z,7.40
2018-12-08T14:42:58.102Z,7.50
2018-12-08T14:45:26.597Z,7.50
2018-12-08T14:47:55.240Z,7.50
2018-12-08T14:50:23.898Z,7.60
2018-12-08T14:52:52.350Z,7.60
2018-12-08T14:55:20.812Z,7.70
2018-12-08T14:57:49.249Z,7.70
2018-12-08T15:00:18.446Z,7.70
2018-12-08T15:02:47.020Z,7.80
2018-12-08T15:05:15.614Z,7.80
2018-12-08T15:07:44.227Z,7.90
2018-12-08T15:10:13.407Z,7.90
2018-12-08T15:12:41.972Z,8.00
2018-12-08T15:15:11.135Z,8.00
2018-12-08T15:17:39.630Z,8.00
2018-12-08T15:20:09.435Z,8.00
2018-12-08T15:22:38.058Z,8.10
2018-12-08T15:25:08.716Z,8.10
2018-12-08T15:27:37.356Z,8.10
2018-12-08T15:30:07.814Z,8.10
2018-12-08T15:32:36.289Z,8.10
2018-12-08T15:35:06.393Z,8.10
2018-12-08T15:37:34.844Z,8.10
2018-12-08T15:40:03.605Z,8.10
2018-12-08T15:42:32.174Z,8.10
2018-12-08T15:45:00.786Z,8.10
2018-12-08T15:47:30.233Z,8.20
2018-12-08T15:49:58.707Z,8.10
2018-12-08T15:52:27.140Z,8.10
2018-12-08T15:54:55.625Z,8.10
2018-12-08T15:57:24.085Z,8.10
2018-12-08T15:59:52.716Z,8.10
2018-12-08T16:02:21.190Z,8.20
2018-12-08T16:04:49.690Z,8.20
2018-12-08T16:07:18.171Z,8.30
2018-12-08T16:09:47.111Z,8.20
2018-12-08T16:12:15.645Z,8.20
2018-12-08T16:14:44.819Z,8.20
2018-12-08T16:17:13.629Z,8.20
2018-12-08T16:19:42.073Z,8.10
2018-12-08T16:22:10.628Z,8.10
2018-12-08T16:24:39.152Z,8.10
2018-12-08T16:27:07.690Z,8.10
2018-12-08T16:29:37.762Z,8.10
2018-12-08T16:32:06.287Z,8.10
2018-12-08T16:34:35.111Z,8.10
2018-12-08T16:37:03.788Z,8.10
2018-12-08T16:39:32.261Z,8.20
2018-12-08T16:42:00.828Z,8.20
2018-12-08T16:44:29.320Z,8.20
2018-12-08T16:46:57.897Z,8.30
2018-12-08T16:49:26.402Z,8.30
2018-12-08T16:51:54.926Z,8.30
2018-12-08T16:54:23.476Z,8.40
2018-12-08T16:56:51.958Z,8.40
2018-12-08T16:59:21.105Z,8.50
2018-12-08T17:01:52.959Z,8.50
2018-12-08T17:04:22.444Z,8.50
2018-12-08T17:06:51.169Z,8.50
2018-12-08T17:09:20.332Z,8.50
2018-12-08T17:11:48.837Z,8.60
2018-12-08T17:14:17.305Z,8.50
2018-12-08T17:16:46.276Z,8.50
2018-12-08T17:19:14.749Z,8.60
2018-12-08T17:21:43.219Z,8.50
2018-12-08T17:24:12.343Z,8.50
2018-12-08T17:26:41.672Z,8.50
2018-12-08T17:29:10.829Z,8.40
2018-12-08T17:31:39.265Z,8.50
2018-12-08T17:34:07.949Z,8.50
2018-12-08T17:36:36.414Z,8.50
2018-12-08T17:39:07.196Z,8.50
2018-12-08T17:41:35.741Z,8.40
2018-12-08T17:44:04.307Z,8.30
2018-12-08T17:46:32.987Z,8.30
2018-12-08T17:49:01.497Z,8.30
2018-12-08T17:51:29.949Z,8.30
2018-12-08T17:54:00.449Z,8.30
2018-12-08T17:56:29.000Z,8.30
2018-12-08T17:58:57.532Z,8.30
2018-12-08T18:01:26.111Z,8.30
2018-12-08T18:03:54.834Z,8.40
2018-12-08T18:06:23.775Z,8.40
2018-12-08T18:08:52.566Z,8.40
2018-12-08T18:11:21.889Z,8.40
2018-12-08T18:13:50.391Z,8.40
2018-12-08T18:16:18.859Z,8.40
2018-12-08T18:18:47.889Z,8.50
2018-12-08T18:21:16.912Z,8.40
2018-12-08T18:23:45.571Z,8.40
2018-12-08T18:26:14.320Z,8.40
2018-12-08T18:28:42.836Z,8.30
2018-12-08T18:31:11.295Z,8.30
2018-12-08T18:33:39.872Z,8.30
2018-12-08T18:36:08.396Z,8.30
2018-12-08T18:38:36.988Z,8.30
2018-12-08T18:41:05.531Z,8.30
2018-12-08T18:43:34.221Z,8.20
2018-12-08T18:46:02.717Z,8.30
2018-12-08T18:48:31.207Z,8.20
2018-12-08T18:51:00.108Z,8.30
2018-12-08T18:53:28.593Z,8.20
2018-12-08T18:55:57.058Z,8.20
2018-12-08T18:58:25.744Z,8.20
2018-12-08T19:00:54.436Z,8.20
2018-12-08T19:03:23.048Z,8.20
2018-12-08T19:05:51.609Z,8.30
2018-12-08T19:08:20.085Z,8.30
2018-12-08T19:10:48.547Z,8.30
2018-12-08T19:13:17.126Z,8.40
2018-12-08T19:15:45.635Z,8.40
2018-12-08T19:18:14.281Z,8.40
2018-12-08T19:20:42.804Z,8.30
2018-12-08T19:23:11.311Z,8.30
2018-12-08T19:25:40.522Z,8.20
2018-12-08T19:28:09.711Z,8.20
2018-12-08T19:30:38.222Z,8.20
2018-12-08T19:33:14.353Z,8.10
2018-12-08T19:35:37.523Z,8.10
2018-12-08T19:38:06.064Z,8.10
2018-12-08T19:40:34.524Z,8.00
2018-12-08T19:43:03.501Z,8.00
2018-12-08T19:45:32.624Z,8.00
2018-12-08T19:48:01.400Z,8.00
2018-12-08T19:50:29.966Z,8.00
2018-12-08T19:52:58.482Z,7.90
2018-12-08T19:55:27.120Z,7.90
2018-12-08T19:57:55.725Z,7.90
2018-12-08T20:00:24.399Z,8.00
2018-12-08T20:02:52.911Z,7.90
2018-12-08T20:05:21.702Z,7.90
2018-12-08T20:07:50.398Z,7.90
2018-12-08T20:10:18.867Z,7.90
2018-12-08T20:12:47.578Z,7.90
2018-12-08T20:15:16.181Z,7.80
2018-12-08T20:17:44.934Z,7.70
2018-12-08T20:20:13.580Z,7.60
2018-12-08T20:22:42.146Z,7.60
2018-12-08T20:25:11.444Z,7.70
2018-12-08T20:27:39.960Z,7.80
2018-12-08T20:30:09.388Z,7.80
2018-12-08T20:32:38.456Z,7.80
2018-12-08T20:35:07.368Z,7.80
2018-12-08T20:37:35.943Z,7.90
2018-12-08T20:40:04.679Z,7.90
2018-12-08T20:42:33.249Z,7.90
2018-12-08T20:45:01.749Z,7.90
2018-12-08T20:47:30.340Z,7.90
2018-12-08T20:49:58.838Z,7.90
2018-12-08T20:52:27.271Z,7.90
2018-12-08T20:54:55.761Z,7.90
2018-12-08T20:57:24.322Z,7.90
2018-12-08T20:59:53.057Z,8.00
2018-12-08T21:02:21.725Z,8.00
2018-12-08T21:04:50.259Z,7.90
2018-12-08T21:07:18.771Z,7.90
2018-12-08T21:12:23.190Z,7.90
2018-12-08T21:14:51.796Z,7.80
2018-12-08T21:17:20.430Z,7.80
2018-12-08T21:19:49.064Z,7.90
2018-12-08T21:22:17.650Z,7.90
2018-12-08T21:24:46.147Z,8.00
2018-12-08T21:27:14.581Z,8.00
2018-12-08T21:29:43.220Z,8.00
2018-12-08T21:32:11.762Z,8.00
2018-12-08T21:34:41.111Z,8.00
2018-12-08T21:37:09.659Z,8.10
2018-12-08T21:39:38.305Z,8.10
2018-12-08T21:42:06.951Z,8.10
2018-12-08T21:44:35.429Z,8.10
2018-12-08T21:47:04.102Z,8.00
2018-12-08T21:49:32.704Z,7.90
2018-12-08T21:52:01.793Z,7.90
2018-12-08T21:54:30.233Z,7.90
2018-12-08T21:56:59.189Z,7.80
2018-12-08T21:59:27.751Z,7.80
2018-12-08T22:01:56.438Z,7.70
2018-12-08T22:04:25.071Z,7.70
2018-12-08T22:06:53.516Z,7.70
2018-12-08T22:09:22.205Z,7.70
2018-12-08T22:11:50.769Z,7.60
2018-12-08T22:14:19.369Z,7.60
2018-12-08T22:16:48.123Z,7.60
2018-12-08T22:19:17.281Z,7.60
2018-12-08T22:21:45.740Z,7.50
2018-12-08T22:24:14.460Z,7.50
2018-12-08T22:26:43.162Z,7.50
2018-12-08T22:29:11.666Z,7.50
2018-12-08T22:31:40.280Z,7.50
2018-12-08T22:34:08.832Z,7.50
2018-12-08T22:36:37.310Z,7.50
2018-12-08T22:39:07.650Z,7.50
2018-12-08T22:41:36.211Z,7.50
2018-12-08T22:44:04.741Z,7.60
2018-12-08T22:46:33.371Z,7.60
2018-12-08T22:49:02.002Z,7.70
2018-12-08T22:51:30.510Z,7.70
2018-12-08T22:53:59.019Z,7.80
2018-12-08T22:56:27.477Z,7.80
2018-12-08T22:58:56.030Z,7.80
2018-12-08T23:01:24.737Z,7.80
2018-12-08T23:03:53.682Z,7.90
2018-12-08T23:06:22.366Z,7.90
2018-12-08T23:08:51.062Z,8.00
2018-12-08T23:11:19.508Z,8.00
2018-12-08T23:13:48.085Z,8.00
2018-12-08T23:16:16.537Z,8.10
2018-12-08T23:18:45.057Z,8.20
2018-12-08T23:21:13.542Z,8.10
2018-12-08T23:23:42.208Z,8.10
2018-12-08T23:26:10.842Z,8.10
2018-12-08T23:28:39.983Z,8.00
2018-12-08T23:31:08.589Z,8.00
2018-12-08T23:33:37.121Z,8.00
2018-12-08T23:36:05.828Z,8.10
2018-12-08T23:38:34.427Z,8.10
2018-12-08T23:41:02.961Z,8.20
2018-12-08T23:43:31.464Z,8.20
2018-12-08T23:45:59.977Z,8.30
2018-12-08T23:48:28.492Z,8.40
2018-12-08T23:50:57.230Z,8.40
2018-12-08T23:53:25.721Z,8.50
2018-12-08T23:55:54.290Z,8.50
2018-12-08T23:58:22.789Z,8.60
